createdAt,value
2017-11-20T00:01:58.049Z,68.60
2017-11-20T00:04:25.533Z,68.60
2017-11-20T00:06:53.117Z,69.00
2017-11-20T00:09:20.610Z,69.40
2017-11-20T00:11:48.212Z,69.60
2017-11-20T00:14:15.709Z,70.00
2017-11-20T00:16:43.286Z,70.30
2017-11-20T00:19:10.928Z,70.10
2017-11-20T00:21:38.412Z,70.00
2017-11-20T00:24:05.966Z,70.30
2017-11-20T00:26:33.469Z,70.50
2017-11-20T00:29:00.998Z,71.00
2017-11-20T00:31:28.501Z,71.00
2017-11-20T00:33:56.135Z,71.10
2017-11-20T00:36:23.657Z,71.30
2017-11-20T00:38:51.121Z,71.40
2017-11-20T00:41:18.589Z,71.40
2017-11-20T00:43:46.100Z,71.60
2017-11-20T00:46:13.736Z,71.50
2017-11-20T00:48:41.273Z,71.40
2017-11-20T00:51:08.750Z,71.40
2017-11-20T00:53:36.403Z,71.30
2017-11-20T00:56:03.884Z,71.40
2017-11-20T00:58:32.134Z,71.00
2017-11-20T01:00:59.673Z,71.00
2017-11-20T01:03:27.179Z,70.90
2017-11-20T01:05:54.648Z,70.60
2017-11-20T01:08:22.110Z,70.70
2017-11-20T01:10:49.678Z,70.50
2017-11-20T01:13:17.316Z,70.20
2017-11-20T01:15:44.808Z,70.10
2017-11-20T01:18:12.317Z,69.90
2017-11-20T01:20:39.785Z,70.50
2017-11-20T01:23:08.030Z,70.00
2017-11-20T01:25:35.653Z,70.00
2017-11-20T01:28:03.126Z,69.70
2017-11-20T01:30:30.597Z,69.60
2017-11-20T01:32:58.077Z,69.60
2017-11-20T01:35:26.334Z,69.10
2017-11-20T01:37:53.806Z,69.00
2017-11-20T01:40:21.298Z,68.80
2017-11-20T01:42:48.778Z,68.70
2017-11-20T01:45:16.262Z,68.80
2017-11-20T01:47:43.969Z,69.20
2017-11-20T01:50:11.462Z,68.60
2017-11-20T01:52:38.941Z,68.30
2017-11-20T01:55:06.649Z,68.30
2017-11-20T01:57:34.318Z,68.10
2017-11-20T02:00:01.822Z,68.20
2017-11-20T02:02:29.296Z,67.80
2017-11-20T02:04:56.768Z,67.80
2017-11-20T02:07:25.798Z,68.00
2017-11-20T02:09:53.276Z,68.00
2017-11-20T02:12:20.885Z,67.70
2017-11-20T02:14:48.547Z,67.90
2017-11-20T02:17:16.036Z,67.70
2017-11-20T02:19:43.712Z,67.80
2017-11-20T02:22:11.185Z,68.00
2017-11-20T02:24:38.677Z,68.00
2017-11-20T02:27:06.254Z,68.20
2017-11-20T02:29:33.737Z,68.30
2017-11-20T02:32:01.337Z,67.80
2017-11-20T02:34:28.802Z,67.80
2017-11-20T02:36:56.300Z,67.80
2017-11-20T02:39:23.866Z,68.00
2017-11-20T02:41:51.372Z,68.30
2017-11-20T02:44:18.845Z,68.30
2017-11-20T02:46:46.563Z,68.70
2017-11-20T02:49:14.087Z,69.10
2017-11-20T02:51:41.584Z,68.90
2017-11-20T02:54:09.206Z,68.80
2017-11-20T02:56:36.887Z,69.20
2017-11-20T02:59:04.378Z,68.90
2017-11-20T03:01:33.046Z,69.00
2017-11-20T03:04:01.393Z,69.20
2017-11-20T03:06:29.640Z,69.10
2017-11-20T03:08:57.116Z,69.00
2017-11-20T03:11:25.373Z,69.70
2017-11-20T03:13:52.981Z,69.70
2017-11-20T03:16:20.462Z,69.70
2017-11-20T03:18:47.957Z,70.10
2017-11-20T03:21:15.435Z,70.40
2017-11-20T03:23:43.857Z,71.50
2017-11-20T03:26:11.465Z,71.50
2017-11-20T03:28:39.149Z,71.50
2017-11-20T03:31:07.395Z,72.50
2017-11-20T03:33:35.182Z,72.50
2017-11-20T03:36:02.859Z,72.10
2017-11-20T03:38:30.352Z,73.20
2017-11-20T03:40:57.834Z,73.60
2017-11-20T03:43:25.318Z,74.30
2017-11-20T03:45:53.566Z,75.60
2017-11-20T03:48:21.390Z,75.60
2017-11-20T03:50:49.043Z,75.90
2017-11-20T03:53:17.302Z,76.10
2017-11-20T03:55:45.595Z,76.80
2017-11-20T03:58:13.075Z,76.80
2017-11-20T04:00:40.589Z,77.30
2017-11-20T04:03:08.261Z,77.30
2017-11-20T04:05:36.534Z,78.50
2017-11-20T04:08:05.911Z,78.50
2017-11-20T04:10:33.422Z,78.90
2017-11-20T04:13:01.299Z,79.00
2017-11-20T04:15:28.792Z,78.60
2017-11-20T04:17:56.285Z,78.50
2017-11-20T04:20:25.685Z,78.50
2017-11-20T04:22:53.353Z,78.40
2017-11-20T04:25:21.616Z,78.80
2017-11-20T04:27:49.153Z,79.50
2017-11-20T04:30:16.637Z,78.80
2017-11-20T04:32:45.876Z,78.70
2017-11-20T04:35:13.546Z,78.70
2017-11-20T04:37:41.169Z,78.80
2017-11-20T04:40:09.444Z,79.50
2017-11-20T04:42:36.949Z,79.40
2017-11-20T04:45:04.490Z,79.80
2017-11-20T04:47:31.997Z,80.00
2017-11-20T04:49:59.470Z,79.80
2017-11-20T04:52:27.137Z,79.90
2017-11-20T04:54:55.443Z,79.60
2017-11-20T04:57:22.974Z,79.60
2017-11-20T04:59:50.476Z,79.50
2017-11-20T05:02:17.974Z,79.30
2017-11-20T05:04:47.455Z,79.20
2017-11-20T05:07:15.105Z,79.10
2017-11-20T05:09:42.642Z,79.50
2017-11-20T05:12:10.144Z,79.20
2017-11-20T05:14:37.633Z,79.10
2017-11-20T05:17:05.902Z,79.00
2017-11-20T05:19:33.407Z,79.00
2017-11-20T05:22:01.102Z,78.70
2017-11-20T05:24:28.585Z,78.80
2017-11-20T05:26:56.932Z,78.40
2017-11-20T05:29:24.674Z,78.40
2017-11-20T05:31:52.287Z,78.50
2017-11-20T05:34:20.545Z,78.40
2017-11-20T05:36:48.029Z,78.40
2017-11-20T05:39:16.644Z,78.20
2017-11-20T05:41:44.165Z,78.20
2017-11-20T05:44:11.630Z,78.20
2017-11-20T05:46:39.181Z,78.10
2017-11-20T05:49:06.774Z,77.80
2017-11-20T05:51:34.254Z,77.20
2017-11-20T05:54:01.777Z,77.40
2017-11-20T05:56:29.426Z,77.30
2017-11-20T05:58:56.897Z,77.70
2017-11-20T06:01:24.407Z,77.50
2017-11-20T06:03:51.881Z,77.10
2017-11-20T06:06:19.451Z,77.20
2017-11-20T06:08:47.713Z,76.90
2017-11-20T06:11:15.194Z,76.90
2017-11-20T06:13:42.685Z,77.40
2017-11-20T06:16:10.195Z,77.00
2017-11-20T06:18:38.108Z,76.80
2017-11-20T06:21:05.663Z,76.70
2017-11-20T06:23:33.149Z,76.90
2017-11-20T06:26:00.807Z,77.00
2017-11-20T06:28:28.301Z,76.70
2017-11-20T06:30:56.192Z,76.40
2017-11-20T06:33:24.484Z,76.10
2017-11-20T06:35:52.092Z,76.10
2017-11-20T06:38:19.794Z,76.00
2017-11-20T06:40:47.334Z,76.00
2017-11-20T06:43:14.834Z,76.20
2017-11-20T06:45:42.418Z,76.20
2017-11-20T06:48:09.973Z,76.00
2017-11-20T06:50:37.465Z,75.90
2017-11-20T06:53:05.176Z,76.20
2017-11-20T06:55:32.920Z,75.60
2017-11-20T06:58:01.182Z,75.00
2017-11-20T07:00:28.701Z,75.00
2017-11-20T07:02:56.282Z,75.20
2017-11-20T07:05:23.873Z,75.20
2017-11-20T07:07:51.457Z,74.80
2017-11-20T07:10:18.952Z,75.00
2017-11-20T07:12:46.450Z,75.10
2017-11-20T07:15:14.510Z,74.80
2017-11-20T07:17:42.046Z,74.50
2017-11-20T07:20:11.709Z,74.60
2017-11-20T07:22:39.363Z,74.60
2017-11-20T07:28:06.550Z,74.50
2017-11-20T07:30:46.798Z,74.70
2017-11-20T07:33:15.274Z,74.40
2017-11-20T07:35:55.360Z,74.10
2017-11-20T07:38:34.583Z,74.70
2017-11-20T07:41:04.917Z,74.30
2017-11-20T07:43:32.402Z,74.20
2017-11-20T07:45:59.926Z,73.50
2017-11-20T07:48:27.438Z,73.50
2017-11-20T07:50:55.030Z,73.60
2017-11-20T07:53:22.521Z,74.30
2017-11-20T07:55:50.821Z,73.70
2017-11-20T07:58:18.323Z,74.00
2017-11-20T08:00:46.842Z,74.40
2017-11-20T08:03:14.368Z,74.40
2017-11-20T08:05:41.932Z,74.60
2017-11-20T08:08:09.450Z,74.60
2017-11-20T08:10:36.934Z,74.40
2017-11-20T08:13:04.431Z,74.80
2017-11-20T08:15:31.926Z,74.20
2017-11-20T08:17:59.438Z,74.30
2017-11-20T08:20:27.088Z,74.70
2017-11-20T08:22:54.573Z,74.20
2017-11-20T08:25:22.096Z,73.90
2017-11-20T08:27:50.497Z,74.00
2017-11-20T08:30:18.008Z,74.00
2017-11-20T08:32:45.614Z,74.00
2017-11-20T08:35:13.311Z,73.60
2017-11-20T08:37:40.941Z,73.60
2017-11-20T08:40:08.426Z,73.60
2017-11-20T08:42:36.141Z,73.10
2017-11-20T08:45:03.695Z,73.40
2017-11-20T08:47:33.147Z,73.10
2017-11-20T08:50:00.658Z,72.50
2017-11-20T08:52:28.167Z,72.40
2017-11-20T08:54:55.789Z,72.50
2017-11-20T08:57:24.054Z,72.50
2017-11-20T08:59:52.374Z,72.50
2017-11-20T09:02:19.997Z,72.50
2017-11-20T09:04:47.477Z,72.60
2017-11-20T09:07:14.980Z,72.00
2017-11-20T09:09:42.508Z,72.00
2017-11-20T09:12:10.408Z,72.00
2017-11-20T09:14:37.918Z,71.70
2017-11-20T09:17:05.423Z,71.40
2017-11-20T09:19:32.924Z,71.60
2017-11-20T09:22:00.598Z,71.80
2017-11-20T09:24:28.076Z,71.40
2017-11-20T09:26:55.615Z,70.90
2017-11-20T09:29:23.103Z,70.50
2017-11-20T09:31:50.934Z,70.40
2017-11-20T09:34:18.515Z,70.60
2017-11-20T09:36:46.089Z,70.40
2017-11-20T09:39:13.752Z,70.30
2017-11-20T09:41:41.252Z,70.10
2017-11-20T09:44:08.746Z,69.80
2017-11-20T09:46:36.242Z,69.70
2017-11-20T09:49:04.533Z,69.40
2017-11-20T09:51:32.027Z,69.40
2017-11-20T09:54:01.192Z,69.40
2017-11-20T09:56:28.781Z,69.30
2017-11-20T09:58:56.257Z,69.50
2017-11-20T10:01:24.361Z,69.20
2017-11-20T10:03:51.890Z,68.90
2017-11-20T10:06:19.437Z,68.90
2017-11-20T10:08:46.905Z,68.70
2017-11-20T10:11:14.461Z,68.00
2017-11-20T10:13:41.950Z,68.40
2017-11-20T10:16:09.451Z,68.60
2017-11-20T10:18:36.941Z,69.20
2017-11-20T10:21:04.440Z,69.10
2017-11-20T10:23:31.926Z,68.80
2017-11-20T10:25:59.537Z,69.10
2017-11-20T10:28:27.048Z,68.30
2017-11-20T10:30:54.758Z,68.10
2017-11-20T10:33:22.234Z,67.90
2017-11-20T10:35:49.730Z,67.10
2017-11-20T10:38:18.011Z,66.40
2017-11-20T10:40:45.517Z,66.40
2017-11-20T10:43:13.009Z,66.10
2017-11-20T10:45:40.482Z,66.00
2017-11-20T10:48:08.042Z,65.60
2017-11-20T10:50:35.571Z,65.00
2017-11-20T10:53:03.055Z,64.40
2017-11-20T10:55:30.743Z,64.30
2017-11-20T10:57:58.448Z,64.20
2017-11-20T11:00:25.951Z,64.50
2017-11-20T11:02:53.465Z,64.80
2017-11-20T11:05:20.958Z,64.70
2017-11-20T11:07:48.443Z,64.90
2017-11-20T11:10:16.923Z,65.20
2017-11-20T11:12:44.534Z,65.20
2017-11-20T11:15:12.163Z,65.50
2017-11-20T11:17:39.780Z,65.80
2017-11-20T11:20:07.270Z,66.00
2017-11-20T11:22:34.793Z,66.10
2017-11-20T11:25:02.396Z,64.70
2017-11-20T11:27:29.882Z,63.40
2017-11-20T11:29:57.379Z,64.50
2017-11-20T11:32:24.868Z,64.90
2017-11-20T11:34:52.371Z,65.30
2017-11-20T11:37:19.900Z,65.40
2017-11-20T11:39:47.378Z,65.30
2017-11-20T11:42:15.092Z,64.70
2017-11-20T11:44:42.648Z,64.60
2017-11-20T11:47:10.373Z,64.80
2017-11-20T11:49:38.533Z,65.20
2017-11-20T11:52:06.015Z,65.50
2017-11-20T11:54:33.530Z,65.60
2017-11-20T11:57:01.007Z,65.70
2017-11-20T11:59:28.502Z,65.70
2017-11-20T12:01:56.118Z,65.90
2017-11-20T12:04:23.650Z,66.00
2017-11-20T12:06:51.144Z,66.20
2017-11-20T12:09:18.618Z,66.30
2017-11-20T12:11:46.317Z,66.20
2017-11-20T12:14:13.837Z,66.40
2017-11-20T12:16:41.613Z,64.80
2017-11-20T12:19:09.128Z,64.80
2017-11-20T12:21:36.621Z,64.20
2017-11-20T12:24:04.322Z,64.40
2017-11-20T12:26:31.854Z,64.80
2017-11-20T12:28:59.356Z,65.10
2017-11-20T12:31:26.879Z,65.20
2017-11-20T12:33:54.353Z,65.10
2017-11-20T12:36:22.621Z,65.40
2017-11-20T12:38:50.338Z,65.30
2017-11-20T12:41:17.817Z,65.10
2017-11-20T12:43:45.328Z,64.90
2017-11-20T12:46:13.073Z,65.50
2017-11-20T12:48:41.380Z,65.90
2017-11-20T12:51:08.889Z,65.90
2017-11-20T12:53:36.364Z,65.60
2017-11-20T12:56:03.871Z,65.50
2017-11-20T12:58:31.543Z,65.70
2017-11-20T13:00:59.840Z,65.70
2017-11-20T13:03:27.456Z,66.00
2017-11-20T13:05:54.935Z,66.10
2017-11-20T13:08:22.555Z,66.20
2017-11-20T13:10:50.029Z,66.40
2017-11-20T13:13:18.262Z,65.80
2017-11-20T13:15:45.803Z,65.60
2017-11-20T13:18:13.436Z,66.40
2017-11-20T13:20:40.973Z,67.40
2017-11-20T13:23:08.649Z,68.20
2017-11-20T13:25:36.209Z,68.50
2017-11-20T13:28:03.735Z,68.00
2017-11-20T13:30:31.248Z,67.90
2017-11-20T13:32:58.737Z,68.20
2017-11-20T13:35:26.603Z,68.30
2017-11-20T13:37:54.239Z,67.10
2017-11-20T13:40:21.770Z,67.20
2017-11-20T13:42:49.284Z,67.70
2017-11-20T13:45:16.768Z,67.80
2017-11-20T13:47:44.562Z,67.80
2017-11-20T13:50:12.048Z,67.30
2017-11-20T13:52:39.728Z,67.10
2017-11-20T13:55:07.214Z,67.00
2017-11-20T13:57:34.702Z,67.30
2017-11-20T14:00:02.782Z,66.40
2017-11-20T14:02:30.268Z,67.10
2017-11-20T14:04:57.760Z,67.30
2017-11-20T14:07:25.333Z,67.40
2017-11-20T14:09:53.613Z,68.00
2017-11-20T14:12:21.918Z,67.00
2017-11-20T14:14:49.422Z,67.00
2017-11-20T14:17:17.759Z,67.50
2017-11-20T14:19:45.260Z,67.50
2017-11-20T14:22:12.859Z,67.60
2017-11-20T14:24:40.334Z,67.80
2017-11-20T14:27:07.991Z,67.90
2017-11-20T14:29:35.640Z,67.60
2017-11-20T14:32:03.172Z,67.80
2017-11-20T14:34:30.718Z,67.20
2017-11-20T14:39:32.349Z,67.80
2017-11-20T14:41:59.986Z,67.80
2017-11-20T14:44:27.654Z,68.00
2017-11-20T14:46:55.902Z,68.20
2017-11-20T14:49:23.395Z,68.10
2017-11-20T14:52:15.653Z,68.10
2017-11-20T14:54:46.659Z,68.20
2017-11-20T14:57:14.926Z,68.90
2017-11-20T14:59:43.177Z,69.00
2017-11-20T15:02:10.673Z,69.00
2017-11-20T15:04:39.042Z,69.00
2017-11-20T15:07:06.709Z,69.00
2017-11-20T15:09:34.216Z,69.00
2017-11-20T15:12:01.702Z,69.30
2017-11-20T15:14:29.182Z,69.90
2017-11-20T15:16:57.453Z,70.30
2017-11-20T15:19:24.953Z,70.30
2017-11-20T15:21:52.728Z,70.90
2017-11-20T15:24:20.213Z,71.20
2017-11-20T15:26:47.730Z,71.50
2017-11-20T15:29:15.319Z,71.80
2017-11-20T15:31:42.846Z,72.10
2017-11-20T15:34:10.622Z,72.50
2017-11-20T15:36:38.120Z,72.80
2017-11-20T15:39:05.746Z,72.70
2017-11-20T15:41:33.248Z,72.70
2017-11-20T15:44:00.752Z,73.10
2017-11-20T15:46:28.254Z,73.40
2017-11-20T15:48:55.743Z,73.80
2017-11-20T15:51:23.230Z,74.20
2017-11-20T15:53:50.713Z,74.50
2017-11-20T15:56:18.226Z,74.60
2017-11-20T15:58:45.842Z,75.00
2017-11-20T16:01:13.440Z,75.90
2017-11-20T16:03:41.684Z,76.10
2017-11-20T16:06:09.977Z,76.20
2017-11-20T16:08:37.570Z,76.20
2017-11-20T16:11:05.211Z,76.70
2017-11-20T16:13:33.589Z,77.10
2017-11-20T16:16:01.487Z,77.10
2017-11-20T16:18:28.991Z,77.20
2017-11-20T16:20:56.473Z,76.70
2017-11-20T16:23:24.006Z,76.80
2017-11-20T16:25:51.594Z,77.10
2017-11-20T16:28:19.079Z,77.10
2017-11-20T16:30:46.610Z,77.50
2017-11-20T16:33:14.984Z,78.00
2017-11-20T16:35:43.248Z,77.50
2017-11-20T16:38:10.780Z,77.50
2017-11-20T16:40:38.266Z,78.20
2017-11-20T16:43:05.821Z,77.70
2017-11-20T16:45:33.435Z,77.50
2017-11-20T16:48:00.930Z,78.30
2017-11-20T16:50:28.404Z,77.60
2017-11-20T16:52:55.999Z,77.60
2017-11-20T16:55:24.373Z,78.20
2017-11-20T16:58:03.954Z,78.20
2017-11-20T17:00:32.251Z,78.80
2017-11-20T17:03:07.707Z,78.80
2017-11-20T17:05:36.716Z,78.00
2017-11-20T17:08:04.205Z,78.00
2017-11-20T17:10:31.721Z,78.30
2017-11-20T17:12:59.995Z,78.30
2017-11-20T17:15:27.584Z,78.80
2017-11-20T17:17:55.899Z,78.50
2017-11-20T17:20:23.417Z,78.50
2017-11-20T17:22:51.811Z,79.30
2017-11-20T17:25:19.296Z,79.30
2017-11-20T17:27:46.770Z,79.40
2017-11-20T17:30:14.306Z,79.60
2017-11-20T17:32:41.809Z,78.00
2017-11-20T17:35:09.297Z,78.30
2017-11-20T17:37:36.850Z,79.10
2017-11-20T17:40:04.517Z,78.30
2017-11-20T17:42:32.777Z,77.60
2017-11-20T17:45:00.278Z,77.60
2017-11-20T17:47:27.922Z,77.20
2017-11-20T17:49:55.485Z,77.30
2017-11-20T17:52:22.967Z,77.20
2017-11-20T17:54:50.560Z,77.60
2017-11-20T17:57:18.055Z,78.40
2017-11-20T17:59:45.677Z,78.00
2017-11-20T18:02:13.374Z,77.10
2017-11-20T18:04:40.893Z,77.50
2017-11-20T18:07:08.394Z,77.70
2017-11-20T18:09:36.666Z,78.60
2017-11-20T18:12:04.915Z,78.70
2017-11-20T18:14:32.440Z,78.80
2017-11-20T18:16:59.937Z,78.30
2017-11-20T18:19:27.535Z,78.40
2017-11-20T18:21:55.055Z,78.60
2017-11-20T18:24:22.551Z,78.50
2017-11-20T18:26:50.883Z,77.60
2017-11-20T18:29:18.415Z,77.70
2017-11-20T18:31:45.930Z,77.30
2017-11-20T18:34:13.467Z,77.30
2017-11-20T18:36:40.957Z,76.50
2017-11-20T18:39:09.220Z,76.70
2017-11-20T18:41:36.720Z,76.70
2017-11-20T18:44:04.220Z,76.00
2017-11-20T18:46:31.752Z,76.60
2017-11-20T18:48:59.253Z,76.60
2017-11-20T18:51:26.751Z,76.70
2017-11-20T18:53:54.307Z,76.90
2017-11-20T18:56:21.835Z,76.70
2017-11-20T18:58:50.239Z,76.40
2017-11-20T19:01:29.498Z,76.50
2017-11-20T19:04:09.266Z,76.00
2017-11-20T19:06:48.541Z,76.10
2017-11-20T19:09:16.068Z,75.80
2017-11-20T19:11:43.579Z,76.00
2017-11-20T19:14:11.072Z,75.60
2017-11-20T19:16:38.593Z,74.90
2017-11-20T19:19:06.146Z,75.30
2017-11-20T19:21:33.710Z,74.60
2017-11-20T19:24:01.362Z,74.70
2017-11-20T19:26:28.864Z,75.10
2017-11-20T19:28:57.140Z,75.30
2017-11-20T19:31:24.626Z,75.10
2017-11-20T19:33:52.148Z,74.70
2017-11-20T19:36:19.662Z,75.30
2017-11-20T19:38:47.159Z,75.20
2017-11-20T19:41:14.796Z,75.30
2017-11-20T19:43:43.070Z,75.30
2017-11-20T19:46:10.933Z,75.20
2017-11-20T19:48:38.416Z,75.20
2017-11-20T19:51:05.911Z,75.60
2017-11-20T19:53:33.505Z,75.80
2017-11-20T19:56:01.008Z,75.70
2017-11-20T19:58:28.533Z,75.40
2017-11-20T20:00:56.785Z,75.10
2017-11-20T20:03:24.276Z,75.10
2017-11-20T20:05:51.777Z,74.80
2017-11-20T20:08:19.403Z,74.40
2017-11-20T20:10:46.969Z,74.00
2017-11-20T20:13:14.651Z,74.40
2017-11-20T20:18:41.587Z,74.10
2017-11-20T20:21:09.383Z,74.00
2017-11-20T20:23:36.863Z,74.20
2017-11-20T20:26:05.273Z,74.10
2017-11-20T20:28:32.827Z,75.50
2017-11-20T20:31:00.314Z,75.20
2017-11-20T20:33:28.079Z,74.90
2017-11-20T20:35:55.570Z,74.60
2017-11-20T20:38:23.088Z,74.80
2017-11-20T20:40:50.772Z,75.70
2017-11-20T20:43:18.262Z,74.40
2017-11-20T20:45:46.094Z,74.20
2017-11-20T20:48:13.582Z,74.10
2017-11-20T20:50:41.065Z,73.80
2017-11-20T20:53:09.371Z,73.60
2017-11-20T20:55:37.630Z,73.90
2017-11-20T20:58:05.921Z,73.60
2017-11-20T21:00:33.585Z,73.60
2017-11-20T21:03:01.064Z,73.80
2017-11-20T21:05:28.599Z,73.70
2017-11-20T21:07:57.003Z,73.00
2017-11-20T21:10:30.339Z,72.90
2017-11-20T21:12:57.815Z,73.10
2017-11-20T21:15:25.302Z,73.90
2017-11-20T21:17:52.856Z,73.90
2017-11-20T21:20:21.102Z,74.40
2017-11-20T21:22:48.594Z,74.30
2017-11-20T21:25:16.399Z,74.40
2017-11-20T21:27:43.906Z,74.60
2017-11-20T21:30:11.414Z,74.60
2017-11-20T21:32:39.127Z,75.10
2017-11-20T21:35:07.403Z,74.50
2017-11-20T21:37:35.814Z,74.70
2017-11-20T21:40:03.289Z,74.50
2017-11-20T21:42:31.915Z,74.50
2017-11-20T21:44:59.589Z,74.90
2017-11-20T21:47:27.244Z,75.10
2017-11-20T21:49:54.735Z,75.20
2017-11-20T21:52:23.015Z,75.00
2017-11-20T21:54:50.500Z,75.30
2017-11-20T21:57:18.025Z,74.90
2017-11-20T21:59:45.521Z,75.40
2017-11-20T22:02:13.041Z,75.50
2017-11-20T22:04:40.518Z,75.50
2017-11-20T22:07:08.022Z,75.30
2017-11-20T22:09:36.158Z,75.90
2017-11-20T22:12:04.489Z,75.90
2017-11-20T22:14:32.809Z,75.40
2017-11-20T22:17:00.309Z,75.40
2017-11-20T22:19:28.230Z,75.00
2017-11-20T22:21:55.739Z,75.00
2017-11-20T22:24:23.344Z,75.00
2017-11-20T22:26:51.199Z,75.00
2017-11-20T22:29:18.779Z,74.80
2017-11-20T22:31:46.263Z,75.30
2017-11-20T22:34:13.795Z,74.80
2017-11-20T22:36:41.294Z,74.60
2017-11-20T22:39:08.783Z,74.40
2017-11-20T22:41:36.474Z,74.40
2017-11-20T22:44:03.998Z,74.30
2017-11-20T22:46:32.273Z,73.50
2017-11-20T22:49:00.533Z,73.60
2017-11-20T22:51:28.031Z,73.60
2017-11-20T22:53:55.879Z,73.80
2017-11-20T22:56:23.361Z,73.70
2017-11-20T22:58:50.862Z,73.20
2017-11-20T23:01:18.346Z,73.30
2017-11-20T23:03:46.599Z,73.50
2017-11-20T23:06:14.094Z,73.40
2017-11-20T23:08:42.354Z,73.40
2017-11-20T23:11:10.606Z,73.50
2017-11-20T23:13:38.213Z,73.40
2017-11-20T23:16:05.813Z,73.40
2017-11-20T23:18:33.919Z,73.20
2017-11-20T23:21:01.607Z,73.30
2017-11-20T23:23:29.139Z,72.60
2017-11-20T23:25:56.823Z,73.30
2017-11-20T23:28:24.310Z,73.50
2017-11-20T23:30:51.822Z,73.30
2017-11-20T23:33:20.098Z,74.30
2017-11-20T23:35:47.668Z,73.60
2017-11-20T23:38:15.161Z,74.20
2017-11-20T23:40:43.031Z,73.40
2017-11-20T23:43:10.577Z,73.30
2017-11-20T23:45:38.121Z,73.00
2017-11-20T23:48:06.493Z,72.80
2017-11-20T23:50:34.010Z,72.80
2017-11-20T23:53:01.626Z,73.10
2017-11-20T23:55:29.303Z,72.90
2017-11-20T23:57:56.786Z,72.80
